Time;durP1;ratioP1;P1;durP2;ratioP2;P2;SDS_P1;SDS_P2;PMS_P1;PMS_P2;Temp;Humidity;BMP_temperature;BMP_pressure;BME280_temperature;BME280_humidity;BME280_pressure;Samples;Min_cycle;Max_cycle;Signal;HPM_P1;HPM_P2
2022/12/23 00:00:24;;;;;;;17.98;4.65;;;6.60;83.00;;;;;;4188490;28;20116;-89
2022/12/23 00:02:44;;;;;;;20.25;4.70;;;6.60;83.00;;;;;;4193911;28;20083;-90
2022/12/23 00:05:04;;;;;;;19.55;4.68;;;6.60;82.90;;;;;;4186672;28;20451;-89
2022/12/23 00:07:23;;;;;;;15.98;4.30;;;6.60;83.70;;;;;;4182419;28;20120;-90
2022/12/23 00:09:42;;;;;;;17.50;4.35;;;6.60;82.90;;;;;;4189569;28;20082;-91
2022/12/23 00:17:17;;;;;;;20.73;4.03;;;6.60;82.90;;;;;;4187580;28;20117;-90
2022/12/23 00:19:37;;;;;;;15.38;4.00;;;6.70;83.00;;;;;;4181277;28;20090;-90
2022/12/23 00:21:56;;;;;;;23.50;4.18;;;6.60;83.00;;;;;;4191111;28;20058;-90
2022/12/23 00:24:15;;;;;;;17.95;4.30;;;6.70;83.10;;;;;;4197997;28;20130;-90
2022/12/23 00:26:34;;;;;;;18.65;3.53;;;6.60;83.10;;;;;;4190133;28;20044;-90
2022/12/23 00:28:57;;;;;;;20.27;4.03;;;6.60;83.10;;;;;;4185420;28;20603;-90
2022/12/23 00:31:18;;;;;;;20.97;4.33;;;6.70;83.20;;;;;;4188048;28;20035;-90
2022/12/23 00:33:42;;;;;;;16.45;3.67;;;6.60;83.10;;;;;;4192496;28;20417;-89
2022/12/23 00:36:18;;;;;;;18.98;4.10;;;6.60;83.10;;;;;;4188371;28;20031;-91
2022/12/23 00:43:56;;;;;;;16.10;3.83;;;6.70;83.20;;;;;;4192012;28;20133;-90
2022/12/23 00:46:15;;;;;;;15.45;4.10;;;6.70;83.20;;;;;;4192669;28;20105;-90
2022/12/23 00:51:12;;;;;;;15.82;3.95;;;6.60;83.10;;;;;;4186496;28;20048;-90
2022/12/23 00:53:32;;;;;;;17.63;4.13;;;6.60;83.00;;;;;;4191555;28;20120;-89
2022/12/23 00:55:51;;;;;;;15.45;4.00;;;6.70;83.10;;;;;;4191798;28;20028;-91
2022/12/23 00:58:10;;;;;;;12.65;3.17;;;6.60;83.00;;;;;;4186730;28;20098;-89
2022/12/23 01:05:50;;;;;;;20.45;3.95;;;6.60;82.80;;;;;;4188002;28;20059;-90
2022/12/23 01:08:11;;;;;;;13.05;4.22;;;6.60;82.70;;;;;;4191210;28;20039;-91
2022/12/23 01:10:30;;;;;;;16.90;3.75;;;6.60;82.70;;;;;;4183902;28;20129;-89
2022/12/23 01:12:50;;;;;;;15.82;3.40;;;6.60;82.70;;;;;;4186315;28;20050;-90
2022/12/23 01:15:10;;;;;;;13.25;3.58;;;6.60;82.70;;;;;;4188110;28;20030;-90
2022/12/23 01:17:29;;;;;;;13.70;3.35;;;6.70;82.80;;;;;;4189645;28;20031;-90
2022/12/23 01:19:48;;;;;;;14.07;2.97;;;6.50;82.80;;;;;;4188089;28;20120;-90
2022/12/23 01:22:07;;;;;;;9.13;2.88;;;6.50;82.70;;;;;;4184979;28;20113;-90
2022/12/23 01:24:28;;;;;;;18.15;2.78;;;6.50;82.80;;;;;;4188915;28;20111;-89
2022/12/23 01:26:47;;;;;;;19.45;2.90;;;6.50;82.70;;;;;;4188980;28;20637;-90
2022/12/23 01:29:06;;;;;;;8.73;2.35;;;6.50;82.60;;;;;;4189221;28;20035;-90
2022/12/23 01:31:27;;;;;;;10.68;2.40;;;6.50;82.60;;;;;;4190379;28;20040;-88
2022/12/23 01:33:46;;;;;;;9.98;2.42;;;6.40;82.40;;;;;;4186738;28;20027;-89
2022/12/23 01:36:07;;;;;;;10.98;2.58;;;6.40;82.40;;;;;;4185992;28;20205;-91
2022/12/23 01:38:26;;;;;;;8.05;2.08;;;6.40;82.30;;;;;;4187455;28;20046;-89
2022/12/23 01:40:45;;;;;;;12.35;2.50;;;6.40;82.30;;;;;;4189571;28;20055;-89
2022/12/23 01:43:04;;;;;;;15.20;2.80;;;6.30;82.20;;;;;;4188679;28;20094;-88
2022/12/23 01:45:32;;;;;;;11.40;2.00;;;6.30;82.10;;;;;;4187275;28;20404;-89
2022/12/23 01:48:03;;;;;;;14.40;3.13;;;6.30;82.20;;;;;;4188042;28;20078;-89
2022/12/23 01:50:50;;;;;;;20.45;3.03;;;6.20;82.10;;;;;;4187842;28;20070;-88
2022/12/23 01:53:19;;;;;;;15.50;2.47;;;6.20;82.10;;;;;;4186848;28;20094;-90
2022/12/23 01:56:04;;;;;;;11.60;2.42;;;6.20;82.20;;;;;;4187021;28;20745;-90
2022/12/23 01:58:30;;;;;;;13.65;2.50;;;6.20;82.20;;;;;;4174250;28;20023;-88
2022/12/23 02:03:41;;;;;;;11.77;2.20;;;6.20;82.50;;;;;;4185348;28;20048;-89
2022/12/23 02:09:15;;;;;;;19.90;2.70;;;6.20;82.50;;;;;;4187553;28;20413;-89
2022/12/23 02:11:43;;;;;;;12.50;2.45;;;6.10;82.60;;;;;;4186543;28;20043;-89
2022/12/23 02:17:35;;;;;;;10.38;2.65;;;6.20;82.70;;;;;;4183765;28;20040;-89
2022/12/23 02:20:22;;;;;;;10.90;2.85;;;6.20;82.70;;;;;;4184862;28;20492;-90
2022/12/23 02:23:01;;;;;;;16.88;2.88;;;6.20;82.80;;;;;;4187971;28;20539;-90
2022/12/23 02:25:26;;;;;;;15.65;2.75;;;6.10;82.70;;;;;;4186819;28;20397;-90
2022/12/23 02:28:04;;;;;;;11.65;2.78;;;6.10;82.60;;;;;;4186545;28;20047;-89
2022/12/23 02:30:25;;;;;;;18.13;3.65;;;6.10;82.60;;;;;;4185110;28;20520;-90
2022/12/23 02:33:12;;;;;;;16.85;3.42;;;6.10;82.50;;;;;;4188190;28;20416;-90
2022/12/23 02:35:35;;;;;;;13.18;2.88;;;6.10;83.20;;;;;;4183262;28;20067;-90
2022/12/23 02:38:19;;;;;;;15.30;3.20;;;6.00;82.40;;;;;;4184177;28;20499;-89
2022/12/23 02:41:08;;;;;;;16.98;3.05;;;6.00;82.30;;;;;;4185130;28;20659;-89
2022/12/23 02:43:48;;;;;;;14.15;3.42;;;6.00;82.30;;;;;;4180973;28;20523;-89
2022/12/23 02:46:31;;;;;;;10.85;2.88;;;5.90;82.10;;;;;;4183363;28;20040;-90
2022/12/23 02:49:08;;;;;;;15.20;3.10;;;5.90;82.80;;;;;;4185810;28;20566;-90
2022/12/23 02:51:32;;;;;;;12.23;2.88;;;5.90;82.10;;;;;;4184632;28;20478;-89
2022/12/23 02:53:53;;;;;;;;;;;5.90;82.10;;;;;;4185349;28;20027;-90
2022/12/23 02:56:15;;;;;;;13.50;3.30;;;5.90;83.00;;;;;;4188789;28;19911;-87
2022/12/23 02:58:41;;;;;;;15.27;3.65;;;5.80;82.00;;;;;;4190809;28;20059;-88
2022/12/23 03:01:02;;;;;;;13.85;3.60;;;5.80;82.00;;;;;;4182757;28;20190;-90
2022/12/23 03:03:21;;;;;;;21.08;3.70;;;5.80;82.00;;;;;;4183755;28;20067;-89
2022/12/23 03:05:44;;;;;;;17.98;3.92;;;5.80;82.00;;;;;;4186338;28;20066;-89
2022/12/23 03:08:10;;;;;;;21.73;4.20;;;5.70;81.90;;;;;;4184383;28;20508;-90
2022/12/23 03:10:54;;;;;;;12.30;3.33;;;5.70;82.00;;;;;;4183801;28;20844;-90
2022/12/23 03:13:28;;;;;;;19.92;4.10;;;5.70;82.10;;;;;;4186293;28;20052;-90
2022/12/23 03:15:56;;;;;;;19.73;3.92;;;5.70;82.20;;;;;;4185879;28;20085;-89
2022/12/23 03:18:40;;;;;;;15.60;3.28;;;5.80;82.40;;;;;;4191164;28;20036;-90
2022/12/23 03:21:11;;;;;;;62.75;23.50;;;5.60;82.40;;;;;;4189243;28;20040;-89
2022/12/23 03:24:02;;;;;;;141.55;44.08;;;5.60;82.50;;;;;;4186155;28;20039;-90
2022/12/23 03:26:46;;;;;;;50.03;21.75;;;5.70;82.60;;;;;;4190540;28;20074;-90
2022/12/23 03:29:24;;;;;;;40.35;19.08;;;5.60;82.70;;;;;;4190439;28;20039;-90
2022/12/23 03:31:46;;;;;;;20.85;9.95;;;5.60;82.70;;;;;;4193739;28;20536;-91
2022/12/23 03:34:09;;;;;;;16.67;7.63;;;5.70;82.90;;;;;;4192115;28;20036;-91
2022/12/23 03:36:35;;;;;;;17.88;5.75;;;5.60;82.80;;;;;;4191161;28;20595;-91
2022/12/23 03:38:56;;;;;;;18.77;5.68;;;5.70;82.90;;;;;;4202966;28;20120;-90
2022/12/23 03:41:25;;;;;;;19.30;4.15;;;5.70;82.80;;;;;;4189154;28;20040;-91
2022/12/23 03:43:53;;;;;;;13.85;3.70;;;5.70;82.90;;;;;;4189052;28;20094;-90
2022/12/23 03:46:23;;;;;;;12.80;3.42;;;5.70;82.90;;;;;;4190020;28;20039;-90
2022/12/23 03:48:48;;;;;;;14.52;3.20;;;5.70;82.90;;;;;;4189032;28;20095;-91
2022/12/23 03:51:18;;;;;;;10.02;2.90;;;5.70;82.90;;;;;;4189314;28;20068;-91
2022/12/23 03:53:58;;;;;;;21.35;3.03;;;5.70;83.00;;;;;;4187805;28;20404;-92
2022/12/23 03:56:27;;;;;;;15.98;3.63;;;5.70;82.90;;;;;;4186129;28;20795;-90
2022/12/23 03:58:45;;;;;;;18.10;2.90;;;5.80;82.90;;;;;;4178984;28;20039;-90
2022/12/23 04:01:10;;;;;;;12.40;2.95;;;5.80;82.90;;;;;;4186853;28;20047;-91
2022/12/23 04:03:45;;;;;;;15.88;3.08;;;5.70;82.80;;;;;;4188957;28;20035;-90
2022/12/23 04:06:10;;;;;;;9.90;2.75;;;5.90;83.00;;;;;;4187203;28;20044;-91
2022/12/23 04:08:36;;;;;;;10.63;2.60;;;5.80;82.80;;;;;;4189689;28;20117;-91
2022/12/23 04:10:56;;;;;;;16.85;2.75;;;5.70;82.70;;;;;;4190470;28;20040;-91
2022/12/23 04:13:16;;;;;;;12.55;2.55;;;5.80;82.70;;;;;;4188077;28;20106;-91
2022/12/23 04:15:40;;;;;;;9.55;2.83;;;5.70;82.60;;;;;;4188943;28;20640;-91
2022/12/23 04:17:59;;;;;;;7.55;2.70;;;5.70;82.40;;;;;;4192650;28;20081;-90
2022/12/23 04:20:19;;;;;;;15.88;3.10;;;5.70;82.40;;;;;;4185293;28;20040;-89
2022/12/23 04:22:38;;;;;;;12.25;2.60;;;5.70;82.30;;;;;;4187733;28;20121;-89
2022/12/23 04:24:57;;;;;;;14.65;2.63;;;5.60;82.30;;;;;;4190002;28;20121;-88
2022/12/23 04:27:17;;;;;;;12.82;2.50;;;5.60;82.20;;;;;;4186000;28;20495;-90
2022/12/23 04:29:37;;;;;;;22.70;3.38;;;5.60;82.20;;;;;;4191307;28;20167;-90
2022/12/23 04:31:56;;;;;;;13.52;2.53;;;5.70;82.30;;;;;;4189336;28;20044;-90
2022/12/23 04:34:15;;;;;;;12.23;2.88;;;5.60;82.30;;;;;;4190359;28;20047;-89
2022/12/23 04:36:34;;;;;;;12.88;2.35;;;5.50;82.30;;;;;;4187204;28;20047;-89
2022/12/23 04:38:54;;;;;;;10.48;2.40;;;5.60;82.40;;;;;;4188115;28;20035;-90
2022/12/23 04:41:13;;;;;;;17.52;3.05;;;5.50;82.50;;;;;;4186667;28;20059;-89
2022/12/23 04:43:32;;;;;;;8.27;2.70;;;5.50;82.50;;;;;;4189925;28;20044;-90
2022/12/23 04:45:51;;;;;;;15.10;2.78;;;5.50;82.60;;;;;;4189892;28;20044;-89
2022/12/23 04:48:10;;;;;;;7.20;2.25;;;5.50;82.80;;;;;;4187436;28;20515;-90
2022/12/23 04:50:29;;;;;;;15.48;3.15;;;5.60;83.00;;;;;;4186231;28;20099;-89
2022/12/23 04:52:48;;;;;;;9.75;2.38;;;5.50;83.00;;;;;;4189821;28;20058;-90
2022/12/23 04:55:08;;;;;;;14.95;2.97;;;5.60;83.20;;;;;;4189559;28;20036;-88
2022/12/23 04:57:28;;;;;;;11.52;2.33;;;5.60;83.30;;;;;;4190059;28;20154;-89
2022/12/23 04:59:47;;;;;;;10.43;2.55;;;5.60;83.40;;;;;;4186810;28;20035;-89
2022/12/23 05:02:06;;;;;;;10.50;2.40;;;5.60;83.40;;;;;;4185228;28;20519;-89
2022/12/23 05:04:25;;;;;;;14.32;2.60;;;5.70;83.50;;;;;;4185743;28;20044;-88
2022/12/23 05:06:44;;;;;;;11.63;2.03;;;5.60;83.40;;;;;;4187932;28;20054;-89
2022/12/23 05:09:04;;;;;;;9.88;2.25;;;5.70;83.50;;;;;;4182612;28;20040;-89
2022/12/23 05:11:23;;;;;;;9.50;2.08;;;5.70;83.60;;;;;;4186561;28;20043;-90
2022/12/23 05:13:42;;;;;;;11.18;2.03;;;5.70;83.60;;;;;;4184906;28;20039;-89
2022/12/23 05:16:01;;;;;;;7.85;2.42;;;5.70;83.60;;;;;;4183164;28;20040;-89
2022/12/23 05:18:21;;;;;;;11.35;2.53;;;5.70;83.60;;;;;;4190064;28;20047;-88
2022/12/23 05:20:41;;;;;;;14.10;2.58;;;5.70;83.60;;;;;;4188041;28;20051;-90
2022/12/23 05:23:00;;;;;;;13.82;2.67;;;5.70;83.60;;;;;;4182507;28;20052;-89
2022/12/23 05:25:19;;;;;;;7.50;1.75;;;5.80;83.70;;;;;;4187880;28;20051;-90
2022/12/23 05:27:38;;;;;;;11.50;2.58;;;5.70;83.50;;;;;;4191586;28;20535;-90
2022/12/23 05:29:57;;;;;;;8.65;1.95;;;5.70;83.50;;;;;;4186821;28;20103;-89
2022/12/23 05:32:16;;;;;;;7.63;1.92;;;5.70;83.60;;;;;;4187748;28;20039;-89
2022/12/23 05:34:35;;;;;;;11.35;1.80;;;5.70;83.50;;;;;;4188475;28;20103;-87
2022/12/23 05:36:55;;;;;;;10.15;1.40;;;5.70;83.50;;;;;;4192419;28;20547;-89
2022/12/23 05:39:14;;;;;;;11.20;1.50;;;5.70;83.50;;;;;;4184146;28;20059;-89
2022/12/23 05:41:33;;;;;;;5.28;1.42;;;5.80;83.50;;;;;;4183114;28;20043;-89
2022/12/23 05:43:52;;;;;;;7.80;1.52;;;5.70;83.40;;;;;;4185521;28;20081;-88
2022/12/23 05:46:11;;;;;;;5.43;1.48;;;5.80;83.50;;;;;;4188881;28;20048;-89
2022/12/23 05:48:30;;;;;;;6.40;1.65;;;5.70;83.40;;;;;;4182338;28;20482;-90
2022/12/23 05:50:51;;;;;;;6.40;1.20;;;5.70;83.30;;;;;;4187548;28;20428;-90
2022/12/23 05:53:10;;;;;;;8.75;1.65;;;5.70;83.40;;;;;;4183881;28;20036;-88
2022/12/23 05:55:29;;;;;;;10.85;2.22;;;5.70;83.30;;;;;;4185908;28;20086;-89
2022/12/23 05:57:49;;;;;;;9.43;1.55;;;5.70;83.30;;;;;;4182710;28;20088;-88
2022/12/23 06:00:09;;;;;;;7.38;1.35;;;5.70;83.30;;;;;;4188247;28;20149;-89
2022/12/23 06:02:28;;;;;;;5.50;1.75;;;5.70;83.30;;;;;;4185309;28;20097;-87
2022/12/23 06:04:48;;;;;;;7.88;1.42;;;5.70;83.30;;;;;;4184815;28;20107;-89
2022/12/23 06:07:08;;;;;;;7.93;1.58;;;5.60;83.30;;;;;;4185164;28;20095;-90
2022/12/23 06:09:27;;;;;;;6.97;1.48;;;5.70;84.00;;;;;;4182326;28;20098;-89
2022/12/23 06:11:47;;;;;;;9.57;1.60;;;5.70;83.30;;;;;;4185514;28;20039;-89
2022/12/23 06:14:06;;;;;;;10.60;1.60;;;5.60;83.20;;;;;;4188159;28;20047;-88
2022/12/23 06:16:25;;;;;;;9.70;1.40;;;5.60;83.30;;;;;;4187725;28;20078;-90
2022/12/23 06:18:47;;;;;;;10.63;1.40;;;5.60;83.30;;;;;;4189180;28;20086;-89
2022/12/23 06:21:06;;;;;;;7.35;1.52;;;5.60;83.40;;;;;;4189998;28;20038;-89
2022/12/23 06:23:25;;;;;;;6.95;1.27;;;5.60;83.30;;;;;;4182701;28;20071;-88
2022/12/23 06:25:45;;;;;;;10.90;1.65;;;5.60;83.20;;;;;;4186363;28;20087;-88
2022/12/23 06:28:06;;;;;;;5.82;1.20;;;5.60;83.20;;;;;;4187400;28;20031;-89
2022/12/23 06:30:25;;;;;;;7.15;1.45;;;5.60;83.00;;;;;;4185134;28;20090;-90
2022/12/23 06:32:44;;;;;;;4.53;1.58;;;5.60;83.00;;;;;;4188005;28;20765;-90
2022/12/23 06:35:04;;;;;;;5.80;1.45;;;5.60;82.90;;;;;;4190050;28;20063;-89
2022/12/23 06:37:23;;;;;;;7.00;1.63;;;5.50;82.70;;;;;;4191425;28;20040;-89
2022/12/23 06:39:42;;;;;;;5.78;1.90;;;5.60;82.70;;;;;;4185423;28;20566;-89
2022/12/23 06:42:01;;;;;;;8.70;2.70;;;5.50;82.50;;;;;;4190598;28;20404;-89
2022/12/23 06:44:20;;;;;;;8.27;2.75;;;5.40;82.40;;;;;;4191205;28;20036;-89
2022/12/23 06:46:39;;;;;;;5.82;2.42;;;5.40;82.30;;;;;;4189088;28;20044;-89
2022/12/23 06:48:58;;;;;;;11.50;2.05;;;5.50;82.20;;;;;;4185248;28;20598;-89
2022/12/23 06:51:17;;;;;;;5.88;1.50;;;5.40;82.00;;;;;;4184163;28;20119;-89
2022/12/23 06:53:40;;;;;;;5.10;1.63;;;5.30;81.80;;;;;;4189104;28;20099;-89
2022/12/23 06:56:00;;;;;;;8.55;1.70;;;5.30;81.80;;;;;;4186473;28;20039;-89
2022/12/23 06:58:20;;;;;;;5.07;1.13;;;5.20;81.70;;;;;;4188369;28;20229;-89
2022/12/23 07:00:39;;;;;;;7.07;1.65;;;5.20;81.70;;;;;;4186231;28;20068;-89
2022/12/23 07:02:58;;;;;;;3.30;1.20;;;5.10;81.60;;;;;;4188697;28;20047;-89
2022/12/23 07:05:17;;;;;;;7.22;1.50;;;5.10;81.60;;;;;;4185755;28;20079;-89
2022/12/23 07:07:36;;;;;;;4.45;1.73;;;5.00;81.60;;;;;;4185936;28;20456;-89
2022/12/23 07:09:55;;;;;;;4.05;1.58;;;5.10;81.60;;;;;;4184168;28;20121;-89
2022/12/23 07:12:14;;;;;;;6.03;1.73;;;5.00;81.40;;;;;;4185031;28;20064;-89
2022/12/23 07:14:33;;;;;;;3.08;1.63;;;4.90;81.30;;;;;;4189402;28;20082;-88
2022/12/23 07:16:53;;;;;;;3.85;1.52;;;5.00;81.30;;;;;;4208368;28;20066;-88
2022/12/23 07:19:12;;;;;;;8.20;1.92;;;4.80;81.10;;;;;;4211279;28;20287;-88
2022/12/23 07:21:33;;;;;;;6.00;1.60;;;4.80;81.20;;;;;;4208013;28;20117;-90
2022/12/23 07:23:53;;;;;;;4.10;1.13;;;4.70;81.20;;;;;;4207202;28;20088;-88
2022/12/23 07:26:12;;;;;;;7.25;1.33;;;4.70;81.20;;;;;;4205314;28;20075;-88
2022/12/23 07:28:32;;;;;;;5.85;1.60;;;4.70;81.30;;;;;;4210821;28;20156;-88
2022/12/23 07:30:51;;;;;;;5.80;1.48;;;4.60;81.40;;;;;;4202735;28;20067;-88
2022/12/23 07:33:10;;;;;;;7.20;1.70;;;4.60;81.60;;;;;;4204764;28;20039;-89
2022/12/23 07:35:29;;;;;;;7.00;1.60;;;4.60;81.80;;;;;;4197238;28;20035;-88
2022/12/23 07:37:54;;;;;;;3.72;1.92;;;4.60;82.00;;;;;;4187253;28;20039;-88
2022/12/23 07:40:13;;;;;;;7.63;1.60;;;4.60;82.20;;;;;;4182233;28;20091;-89
2022/12/23 07:42:33;;;;;;;8.30;2.30;;;4.60;82.30;;;;;;4181903;28;20103;-89
2022/12/23 07:44:52;;;;;;;7.38;3.15;;;4.60;82.40;;;;;;4183719;28;20206;-90
2022/12/23 07:47:11;;;;;;;6.28;3.58;;;4.60;82.60;;;;;;4185903;28;20089;-90
2022/12/23 07:49:30;;;;;;;6.97;3.35;;;4.60;82.70;;;;;;4185970;28;20063;-88
2022/12/23 07:51:49;;;;;;;4.47;1.60;;;4.60;82.70;;;;;;4184876;28;20530;-88
2022/12/23 07:54:12;;;;;;;3.95;1.10;;;4.60;82.80;;;;;;4187557;28;20039;-89
2022/12/23 07:56:31;;;;;;;2.35;0.98;;;4.60;82.90;;;;;;4183191;28;20083;-89
2022/12/23 07:58:51;;;;;;;5.05;0.82;;;4.60;82.90;;;;;;4182393;28;20051;-89
2022/12/23 08:01:10;;;;;;;5.75;0.85;;;4.60;82.90;;;;;;4183365;28;20385;-88
2022/12/23 08:03:30;;;;;;;4.50;1.00;;;4.70;83.00;;;;;;4195991;28;20043;-88
2022/12/23 08:06:02;;;;;;;3.88;0.82;;;4.70;83.10;;;;;;4192327;28;20419;-89
2022/12/23 08:08:22;;;;;;;3.65;1.08;;;4.70;83.20;;;;;;4187292;28;20128;-89
2022/12/23 08:10:42;;;;;;;1.58;0.55;;;4.70;83.20;;;;;;4187749;28;20062;-89
2022/12/23 08:13:01;;;;;;;4.32;0.93;;;4.80;83.20;;;;;;4190025;28;20047;-89
2022/12/23 08:15:20;;;;;;;3.30;0.95;;;4.80;83.20;;;;;;4192372;28;20067;-88
2022/12/23 08:17:39;;;;;;;3.85;0.98;;;4.80;83.00;;;;;;4192087;28;20052;-89
2022/12/23 08:19:58;;;;;;;3.30;1.40;;;4.80;82.90;;;;;;4187041;28;20058;-89
2022/12/23 08:22:17;;;;;;;4.15;0.88;;;4.80;82.80;;;;;;4191149;28;20723;-87
2022/12/23 08:24:36;;;;;;;2.03;0.63;;;4.80;82.50;;;;;;4187419;28;20048;-88
2022/12/23 08:26:57;;;;;;;6.75;0.60;;;4.70;82.40;;;;;;4183056;28;20171;-89
2022/12/23 08:29:16;;;;;;;5.65;0.70;;;4.70;82.30;;;;;;4188659;28;20047;-88
2022/12/23 08:31:35;;;;;;;4.65;0.98;;;4.70;82.10;;;;;;4189031;28;20086;-90
2022/12/23 08:33:55;;;;;;;6.45;1.70;;;4.80;82.10;;;;;;4194318;28;20109;-90
2022/12/23 08:36:21;;;;;;;16.15;6.53;;;4.70;81.90;;;;;;4187931;28;20039;-89
2022/12/23 08:38:41;;;;;;;19.98;7.93;;;4.60;81.90;;;;;;4188310;28;20038;-89
2022/12/23 08:41:00;;;;;;;29.48;12.40;;;4.60;81.90;;;;;;4188392;28;20696;-89
2022/12/23 08:43:20;;;;;;;20.30;8.07;;;4.60;81.90;;;;;;4187978;28;20147;-89
2022/12/23 08:45:39;;;;;;;27.95;9.90;;;4.60;82.00;;;;;;4187038;28;20047;-89
2022/12/23 08:47:58;;;;;;;25.65;10.23;;;4.60;82.00;;;;;;4186318;28;20047;-88
2022/12/23 08:50:17;;;;;;;17.45;7.03;;;4.70;82.30;;;;;;4186997;28;20066;-89
2022/12/23 08:52:37;;;;;;;16.02;6.55;;;4.60;82.30;;;;;;4188446;28;20098;-90
2022/12/23 08:54:56;;;;;;;9.45;3.92;;;4.60;82.40;;;;;;4191085;28;20070;-89
2022/12/23 08:57:16;;;;;;;5.95;1.98;;;4.60;82.40;;;;;;4189639;28;20138;-88
2022/12/23 08:59:38;;;;;;;7.07;1.23;;;4.60;82.40;;;;;;4183397;28;20076;-89
2022/12/23 09:01:58;;;;;;;5.30;1.30;;;4.60;82.40;;;;;;4188548;28;20553;-88
2022/12/23 09:04:17;;;;;;;4.60;1.10;;;4.60;82.40;;;;;;4184768;28;20094;-88
2022/12/23 09:06:40;;;;;;;5.95;1.38;;;4.60;82.30;;;;;;4184510;28;20082;-89
2022/12/23 09:09:00;;;;;;;7.78;2.28;;;4.60;82.40;;;;;;4191412;28;20044;-89
2022/12/23 09:11:22;;;;;;;21.88;6.75;;;4.60;82.40;;;;;;4184422;28;20103;-88
2022/12/23 09:13:41;;;;;;;13.00;3.35;;;4.60;82.40;;;;;;4189823;28;20618;-88
2022/12/23 09:16:01;;;;;;;11.00;4.10;;;4.60;82.40;;;;;;4186133;28;20404;-89
2022/12/23 09:18:20;;;;;;;41.47;13.60;;;4.60;82.50;;;;;;4187994;28;20043;-88
2022/12/23 09:20:40;;;;;;;15.68;6.85;;;4.60;82.50;;;;;;4185108;28;20032;-89
2022/12/23 09:23:00;;;;;;;10.27;3.80;;;4.70;82.60;;;;;;4178693;28;20412;-89
2022/12/23 09:25:19;;;;;;;7.72;1.77;;;4.60;82.80;;;;;;4201579;28;20036;-88
2022/12/23 09:27:38;;;;;;;4.75;1.45;;;4.60;83.50;;;;;;4208015;28;20123;-87
2022/12/23 09:29:58;;;;;;;6.15;1.40;;;4.70;83.00;;;;;;4210111;28;20027;-88
2022/12/23 09:32:18;;;;;;;6.85;1.13;;;4.70;83.00;;;;;;4210987;28;20044;-87
2022/12/23 09:34:38;;;;;;;7.10;1.13;;;4.70;83.10;;;;;;4208946;28;20023;-88
2022/12/23 09:36:57;;;;;;;5.88;1.30;;;4.70;83.10;;;;;;4210992;28;20062;-88
2022/12/23 09:39:16;;;;;;;10.48;1.40;;;4.70;83.80;;;;;;4194269;28;20516;-88
2022/12/23 09:42:01;;;;;;;8.18;1.35;;;4.70;83.10;;;;;;4184977;28;20040;-88
2022/12/23 09:44:51;;;;;;;7.15;1.10;;;4.80;83.20;;;;;;4182086;28;20857;-88
2022/12/23 09:47:16;;;;;;;4.95;1.45;;;4.80;83.10;;;;;;4187584;28;20660;-89
2022/12/23 09:49:49;;;;;;;7.20;1.13;;;4.80;83.00;;;;;;4188052;28;20581;-89
2022/12/23 09:52:15;;;;;;;8.48;1.17;;;4.80;83.10;;;;;;4179718;28;20171;-89
2022/12/23 09:54:44;;;;;;;5.57;1.08;;;4.90;83.10;;;;;;4183450;28;20043;-89
2022/12/23 09:57:42;;;;;;;4.38;1.05;;;5.00;83.20;;;;;;4184151;28;20496;-89
2022/12/23 10:00:13;;;;;;;5.72;1.10;;;4.90;83.10;;;;;;4138963;28;20036;-88
2022/12/23 10:02:46;;;;;;;7.75;1.30;;;4.90;83.10;;;;;;4127273;28;20077;-88
2022/12/23 10:05:31;;;;;;;4.03;1.00;;;4.90;83.10;;;;;;4137872;28;20580;-90
2022/12/23 10:08:18;;;;;;;11.10;0.90;;;5.00;83.10;;;;;;4138614;28;20097;-89
2022/12/23 10:10:45;;;;;;;8.88;1.40;;;5.00;83.10;;;;;;4122232;28;20037;-89
2022/12/23 10:13:08;;;;;;;6.22;1.00;;;5.10;83.10;;;;;;4139522;28;20136;-89
2022/12/23 10:15:44;;;;;;;5.60;1.30;;;5.10;83.00;;;;;;4121975;28;20097;-89
2022/12/23 10:18:26;;;;;;;10.45;1.45;;;5.10;83.00;;;;;;4124384;28;20040;-89
2022/12/23 10:21:13;;;;;;;12.35;1.95;;;5.10;83.00;;;;;;4125467;28;20078;-88
2022/12/23 10:23:37;;;;;;;8.82;1.35;;;5.10;82.90;;;;;;4141290;28;20103;-89
2022/12/23 10:25:56;;;;;;;;;;;5.10;83.00;;;;;;4142675;28;20052;-89
2022/12/23 10:28:16;;;;;;;10.07;1.33;;;5.20;83.00;;;;;;4138787;28;19963;-88
2022/12/23 10:30:41;;;;;;;12.98;1.50;;;5.20;82.80;;;;;;4133961;28;20249;-87
2022/12/23 10:33:06;;;;;;;12.43;1.70;;;5.20;82.70;;;;;;4131928;28;20041;-86
2022/12/23 10:35:40;;;;;;;8.50;1.33;;;5.30;82.80;;;;;;4149806;28;20531;-88
2022/12/23 10:38:10;;;;;;;11.25;1.42;;;5.30;82.70;;;;;;4185590;28;20779;-89
2022/12/23 10:40:56;;;;;;;12.85;1.73;;;5.20;82.60;;;;;;4180453;28;20594;-88
2022/12/23 10:43:30;;;;;;;6.53;1.23;;;5.30;82.60;;;;;;4185332;28;20100;-88
2022/12/23 10:45:56;;;;;;;7.03;1.00;;;5.30;82.40;;;;;;4185362;28;20071;-88
2022/12/23 10:48:51;;;;;;;13.45;1.23;;;5.30;82.40;;;;;;4185108;28;20039;-88
2022/12/23 10:51:20;;;;;;;5.47;1.00;;;5.30;82.10;;;;;;4183722;28;20066;-89
2022/12/23 10:53:52;;;;;;;5.53;1.23;;;5.40;81.60;;;;;;4179456;28;20039;-88
2022/12/23 10:56:12;;;;;;;10.85;1.48;;;5.40;81.70;;;;;;4179651;28;20446;-87
2022/12/23 10:58:34;;;;;;;8.48;1.52;;;5.40;81.70;;;;;;4178642;28;20089;-87
2022/12/23 11:00:56;;;;;;;10.10;1.27;;;5.40;81.50;;;;;;4179054;28;20039;-86
2022/12/23 11:03:25;;;;;;;11.38;1.50;;;5.50;81.50;;;;;;4181087;28;20036;-87
2022/12/23 11:05:47;;;;;;;23.40;1.95;;;5.40;81.50;;;;;;4188412;28;20432;-88
2022/12/23 11:08:08;;;;;;;13.73;1.23;;;5.40;81.60;;;;;;4185721;28;20090;-88
2022/12/23 11:10:31;;;;;;;5.72;0.90;;;5.50;81.40;;;;;;4185395;28;20043;-87
2022/12/23 11:12:52;;;;;;;7.72;1.30;;;5.50;81.30;;;;;;4188045;28;20120;-87
2022/12/23 11:15:39;;;;;;;15.30;1.77;;;5.50;81.00;;;;;;4190496;28;20110;-88
2022/12/23 11:17:58;;;;;;;11.02;1.52;;;5.50;80.60;;;;;;4183954;28;20039;-88
2022/12/23 11:20:21;;;;;;;6.43;1.25;;;5.60;80.50;;;;;;4185075;28;20031;-89
2022/12/23 11:22:52;;;;;;;8.75;1.17;;;5.50;80.50;;;;;;4179566;28;20090;-86
2022/12/23 11:25:26;;;;;;;11.05;1.23;;;5.50;79.90;;;;;;4186806;28;20089;-88
2022/12/23 11:27:45;;;;;;;14.27;2.00;;;5.50;80.00;;;;;;4185304;28;20063;-89
2022/12/23 11:30:05;;;;;;;10.80;1.23;;;5.60;80.10;;;;;;4186833;28;20102;-89
2022/12/23 11:32:27;;;;;;;11.80;1.75;;;5.60;80.10;;;;;;4184810;28;20827;-88
2022/12/23 11:34:47;;;;;;;18.10;2.13;;;5.60;79.80;;;;;;4177724;28;20165;-90
2022/12/23 11:37:27;;;;;;;14.55;1.23;;;5.60;79.60;;;;;;4183906;28;20055;-89
2022/12/23 11:39:46;;;;;;;15.60;1.40;;;5.60;79.20;;;;;;4184788;28;20115;-89
2022/12/23 11:42:18;;;;;;;11.30;1.52;;;5.60;79.20;;;;;;4185856;28;20094;-88
2022/12/23 11:44:47;;;;;;;12.75;1.48;;;5.60;79.30;;;;;;4190203;28;20173;-88
2022/12/23 11:47:22;;;;;;;8.60;1.17;;;5.60;79.20;;;;;;4191099;28;20480;-88
2022/12/23 11:49:48;;;;;;;7.47;1.40;;;5.60;79.00;;;;;;4188331;28;20393;-87
2022/12/23 11:52:11;;;;;;;9.02;1.60;;;5.60;78.90;;;;;;4189846;28;20034;-87
2022/12/23 11:54:32;;;;;;;8.10;1.20;;;5.60;78.90;;;;;;4200503;28;21032;-88
2022/12/23 11:56:53;;;;;;;6.75;1.25;;;5.60;78.80;;;;;;4188237;28;21307;-89
2022/12/23 11:59:27;;;;;;;10.15;1.27;;;5.60;78.50;;;;;;4187178;28;20051;-87
2022/12/23 12:01:47;;;;;;;7.63;1.25;;;5.60;78.60;;;;;;4171175;28;20039;-89
2022/12/23 12:04:08;;;;;;;14.80;1.30;;;5.70;79.40;;;;;;4175510;28;20191;-88
2022/12/23 12:06:31;;;;;;;14.98;1.23;;;5.70;80.00;;;;;;4174769;28;20063;-87
2022/12/23 12:08:52;;;;;;;10.95;1.10;;;5.80;80.00;;;;;;4176986;28;20070;-88
2022/12/23 12:11:40;;;;;;;7.85;0.82;;;5.80;79.10;;;;;;4183325;28;20043;-88
2022/12/23 12:14:03;;;;;;;5.63;1.00;;;5.90;78.20;;;;;;4179306;28;20092;-87
2022/12/23 12:16:50;;;;;;;7.10;1.20;;;5.90;77.80;;;;;;4188477;28;20786;-88
2022/12/23 12:19:15;;;;;;;8.10;1.15;;;5.90;77.00;;;;;;4182575;28;20043;-88
2022/12/23 12:21:37;;;;;;;11.57;1.35;;;5.90;76.90;;;;;;4182868;28;20098;-87
2022/12/23 12:24:07;;;;;;;7.50;1.10;;;5.90;76.90;;;;;;4181795;28;20051;-88
2022/12/23 12:26:31;;;;;;;6.93;1.00;;;5.90;76.40;;;;;;4182472;28;20035;-90
2022/12/23 12:28:57;;;;;;;8.82;1.55;;;5.90;76.40;;;;;;4184117;28;20098;-88
2022/12/23 12:31:21;;;;;;;7.05;1.05;;;5.90;76.40;;;;;;4189270;28;20038;-90
2022/12/23 12:33:56;;;;;;;6.60;1.15;;;5.90;76.10;;;;;;4189928;28;20525;-88
2022/12/23 12:36:24;;;;;;;12.90;1.17;;;5.90;75.90;;;;;;4186652;28;20039;-89
2022/12/23 12:38:47;;;;;;;7.13;1.00;;;5.90;75.50;;;;;;4186141;28;20094;-90
2022/12/23 12:41:20;;;;;;;12.38;1.23;;;5.80;75.60;;;;;;4183184;28;20115;-90
2022/12/23 12:43:49;;;;;;;6.53;0.98;;;5.90;75.40;;;;;;4170678;28;20107;-90
2022/12/23 12:46:42;;;;;;;12.88;1.48;;;5.80;75.20;;;;;;4183923;28;20090;-90
2022/12/23 12:49:10;;;;;;;9.50;1.20;;;5.80;74.70;;;;;;4183329;28;20038;-89
2022/12/23 12:51:39;;;;;;;14.10;1.52;;;5.80;74.60;;;;;;4182371;28;20039;-88
2022/12/23 12:54:25;;;;;;;7.55;1.25;;;5.80;74.60;;;;;;4181530;28;20036;-88
2022/12/23 12:56:53;;;;;;;8.85;1.25;;;5.80;74.50;;;;;;4181759;28;20388;-87
2022/12/23 12:59:20;;;;;;;9.48;0.98;;;5.80;74.30;;;;;;4181068;28;20039;-88
2022/12/23 13:01:54;;;;;;;11.10;1.15;;;5.80;74.20;;;;;;4181494;28;20047;-88
2022/12/23 13:04:54;;;;;;;10.55;1.30;;;5.80;73.40;;;;;;4183997;28;20071;-88